sensor_id;sensor_type;location;lat;lon;timestamp;temperature;humidity
28520;DHT22;15732;48.534;20.382;2023-04-22T00:00:33;11.80;99.90
28520;DHT22;15732;48.534;20.382;2023-04-22T00:03:01;11.80;99.90
28520;DHT22;15732;48.534;20.382;2023-04-22T00:05:28;11.80;99.90
28520;DHT22;15732;48.534;20.382;2023-04-22T00:07:59;11.80;99.90
28520;DHT22;15732;48.534;20.382;2023-04-22T00:10:29;11.70;99.90
28520;DHT22;15732;48.534;20.382;2023-04-22T00:13:00;11.70;99.90
28520;DHT22;15732;48.534;20.382;2023-04-22T00:15:26;11.60;99.90
28520;DHT22;15732;48.534;20.382;2023-04-22T00:17:57;11.60;99.90
28520;DHT22;15732;48.534;20.382;2023-04-22T00:20:27;11.50;99.90
28520;DHT22;15732;48.534;20.382;2023-04-22T00:22:54;11.40;99.90
28520;DHT22;15732;48.534;20.382;2023-04-22T00:25:21;11.30;99.90
28520;DHT22;15732;48.534;20.382;2023-04-22T00:27:51;11.30;99.90
28520;DHT22;15732;48.534;20.382;2023-04-22T00:30:18;11.10;99.90
28520;DHT22;15732;48.534;20.382;2023-04-22T00:32:45;11.10;99.90
28520;DHT22;15732;48.534;20.382;2023-04-22T00:35:14;11.00;99.90
28520;DHT22;15732;48.534;20.382;2023-04-22T00:37:40;10.70;99.90
28520;DHT22;15732;48.534;20.382;2023-04-22T00:40:07;10.60;99.90
28520;DHT22;15732;48.534;20.382;2023-04-22T00:42:36;10.60;99.90
28520;DHT22;15732;48.534;20.382;2023-04-22T00:45:02;10.70;99.90
28520;DHT22;15732;48.534;20.382;2023-04-22T00:47:30;10.80;99.90
28520;DHT22;15732;48.534;20.382;2023-04-22T00:50:01;10.60;99.90
28520;DHT22;15732;48.534;20.382;2023-04-22T00:52:28;10.60;99.90
28520;DHT22;15732;48.534;20.382;2023-04-22T00:54:58;10.70;99.90
28520;DHT22;15732;48.534;20.382;2023-04-22T00:57:25;10.60;99.90
28520;DHT22;15732;48.534;20.382;2023-04-22T00:59:52;10.50;99.90
28520;DHT22;15732;48.534;20.382;2023-04-22T01:02:19;10.30;99.90
28520;DHT22;15732;48.534;20.382;2023-04-22T01:04:46;10.20;99.90
28520;DHT22;15732;48.534;20.382;2023-04-22T01:07:16;9.90;99.90
28520;DHT22;15732;48.534;20.382;2023-04-22T01:09:47;9.80;99.90
28520;DHT22;15732;48.534;20.382;2023-04-22T01:12:13;9.60;99.90
28520;DHT22;15732;48.534;20.382;2023-04-22T01:14:40;9.50;99.90
28520;DHT22;15732;48.534;20.382;2023-04-22T01:17:07;9.30;99.90
28520;DHT22;15732;48.534;20.382;2023-04-22T01:19:39;9.20;99.90
28520;DHT22;15732;48.534;20.382;2023-04-22T01:22:07;9.10;99.90
28520;DHT22;15732;48.534;20.382;2023-04-22T01:24:33;9.00;99.90
28520;DHT22;15732;48.534;20.382;2023-04-22T01:27:04;9.00;99.90
28520;DHT22;15732;48.534;20.382;2023-04-22T01:29:31;8.80;99.90
28520;DHT22;15732;48.534;20.382;2023-04-22T01:31:58;8.70;99.90
28520;DHT22;15732;48.534;20.382;2023-04-22T01:34:25;8.70;99.90
28520;DHT22;15732;48.534;20.382;2023-04-22T01:36:52;8.70;99.90
28520;DHT22;15732;48.534;20.382;2023-04-22T01:39:18;8.80;99.90
28520;DHT22;15732;48.534;20.382;2023-04-22T01:41:45;8.70;99.90
28520;DHT22;15732;48.534;20.382;2023-04-22T01:44:12;8.70;99.90
28520;DHT22;15732;48.534;20.382;2023-04-22T01:46:44;8.60;99.90
28520;DHT22;15732;48.534;20.382;2023-04-22T01:49:14;8.60;99.90
28520;DHT22;15732;48.534;20.382;2023-04-22T01:51:45;8.60;99.90
28520;DHT22;15732;48.534;20.382;2023-04-22T01:54:12;8.50;99.90
28520;DHT22;15732;48.534;20.382;2023-04-22T01:56:38;8.40;99.90
28520;DHT22;15732;48.534;20.382;2023-04-22T01:59:06;8.30;99.90
28520;DHT22;15732;48.534;20.382;2023-04-22T02:01:33;8.20;99.90
28520;DHT22;15732;48.534;20.382;2023-04-22T02:04:00;8.20;99.90
28520;DHT22;15732;48.534;20.382;2023-04-22T02:06:27;8.10;99.90
28520;DHT22;15732;48.534;20.382;2023-04-22T02:08:59;8.00;99.90
28520;DHT22;15732;48.534;20.382;2023-04-22T02:11:26;8.10;99.90
28520;DHT22;15732;48.534;20.382;2023-04-22T02:13:52;8.10;99.90
28520;DHT22;15732;48.534;20.382;2023-04-22T02:16:19;8.00;99.90
28520;DHT22;15732;48.534;20.382;2023-04-22T02:18:46;7.90;99.90
28520;DHT22;15732;48.534;20.382;2023-04-22T02:21:13;7.80;99.90
28520;DHT22;15732;48.534;20.382;2023-04-22T02:23:40;7.70;99.90
28520;DHT22;15732;48.534;20.382;2023-04-22T02:26:06;7.70;99.90
28520;DHT22;15732;48.534;20.382;2023-04-22T02:28:33;7.70;99.90
28520;DHT22;15732;48.534;20.382;2023-04-22T02:31:00;7.70;99.90
28520;DHT22;15732;48.534;20.382;2023-04-22T02:33:27;7.70;99.90
28520;DHT22;15732;48.534;20.382;2023-04-22T02:35:54;7.70;99.90
28520;DHT22;15732;48.534;20.382;2023-04-22T02:38:24;7.70;99.90
28520;DHT22;15732;48.534;20.382;2023-04-22T02:40:51;7.70;99.90
28520;DHT22;15732;48.534;20.382;2023-04-22T02:43:18;7.60;99.90
28520;DHT22;15732;48.534;20.382;2023-04-22T02:45:45;7.70;99.90
28520;DHT22;15732;48.534;20.382;2023-04-22T02:48:11;7.70;99.90
28520;DHT22;15732;48.534;20.382;2023-04-22T02:50:38;7.70;99.90
28520;DHT22;15732;48.534;20.382;2023-04-22T02:53:06;7.80;99.90
28520;DHT22;15732;48.534;20.382;2023-04-22T02:55:33;7.80;99.90
28520;DHT22;15732;48.534;20.382;2023-04-22T02:57:59;7.70;99.90
28520;DHT22;15732;48.534;20.382;2023-04-22T03:00:26;7.70;99.90
28520;DHT22;15732;48.534;20.382;2023-04-22T03:02:53;7.70;99.90
28520;DHT22;15732;48.534;20.382;2023-04-22T03:05:20;7.70;99.90
28520;DHT22;15732;48.534;20.382;2023-04-22T03:07:47;7.60;99.90
28520;DHT22;15732;48.534;20.382;2023-04-22T03:10:14;7.40;99.90
28520;DHT22;15732;48.534;20.382;2023-04-22T03:12:44;7.40;99.90
28520;DHT22;15732;48.534;20.382;2023-04-22T03:15:11;7.30;99.90
28520;DHT22;15732;48.534;20.382;2023-04-22T03:17:38;7.20;99.90
28520;DHT22;15732;48.534;20.382;2023-04-22T03:20:05;7.20;99.90
28520;DHT22;15732;48.534;20.382;2023-04-22T03:22:31;7.20;99.90
28520;DHT22;15732;48.534;20.382;2023-04-22T03:24:58;7.20;99.90
28520;DHT22;15732;48.534;20.382;2023-04-22T03:27:29;7.10;99.90
28520;DHT22;15732;48.534;20.382;2023-04-22T03:29:59;7.10;99.90
28520;DHT22;15732;48.534;20.382;2023-04-22T03:32:25;7.10;99.90
28520;DHT22;15732;48.534;20.382;2023-04-22T03:34:52;7.10;99.90
28520;DHT22;15732;48.534;20.382;2023-04-22T03:37:19;7.00;99.90
28520;DHT22;15732;48.534;20.382;2023-04-22T03:39:46;7.00;99.90
28520;DHT22;15732;48.534;20.382;2023-04-22T03:42:13;7.00;99.90
28520;DHT22;15732;48.534;20.382;2023-04-22T03:44:43;6.80;99.90
28520;DHT22;15732;48.534;20.382;2023-04-22T03:47:11;6.80;99.90
28520;DHT22;15732;48.534;20.382;2023-04-22T03:49:37;6.80;99.90
28520;DHT22;15732;48.534;20.382;2023-04-22T03:52:04;6.90;99.90
28520;DHT22;15732;48.534;20.382;2023-04-22T03:54:31;6.80;99.90
28520;DHT22;15732;48.534;20.382;2023-04-22T03:56:57;6.90;99.90
28520;DHT22;15732;48.534;20.382;2023-04-22T03:59:28;6.90;99.90
28520;DHT22;15732;48.534;20.382;2023-04-22T04:01:58;6.90;99.90
28520;DHT22;15732;48.534;20.382;2023-04-22T04:04:25;6.70;99.90
28520;DHT22;15732;48.534;20.382;2023-04-22T04:06:54;6.70;99.90
28520;DHT22;15732;48.534;20.382;2023-04-22T04:09:21;6.60;99.90
28520;DHT22;15732;48.534;20.382;2023-04-22T04:11:48;6.60;99.90
28520;DHT22;15732;48.534;20.382;2023-04-22T04:14:15;6.60;99.90
28520;DHT22;15732;48.534;20.382;2023-04-22T04:16:41;6.60;99.90
28520;DHT22;15732;48.534;20.382;2023-04-22T04:19:08;6.60;99.90
28520;DHT22;15732;48.534;20.382;2023-04-22T04:21:39;6.60;99.90
28520;DHT22;15732;48.534;20.382;2023-04-22T04:24:07;6.70;99.90
28520;DHT22;15732;48.534;20.382;2023-04-22T04:26:34;6.80;99.90
28520;DHT22;15732;48.534;20.382;2023-04-22T04:29:05;6.80;99.90
28520;DHT22;15732;48.534;20.382;2023-04-22T04:31:33;6.80;99.90
28520;DHT22;15732;48.534;20.382;2023-04-22T04:34:00;6.90;99.90
28520;DHT22;15732;48.534;20.382;2023-04-22T04:36:27;7.00;99.90
28520;DHT22;15732;48.534;20.382;2023-04-22T04:38:54;7.00;99.90
28520;DHT22;15732;48.534;20.382;2023-04-22T04:41:21;7.10;99.90
28520;DHT22;15732;48.534;20.382;2023-04-22T04:43:54;7.10;99.90
28520;DHT22;15732;48.534;20.382;2023-04-22T04:46:21;7.10;99.90
28520;DHT22;15732;48.534;20.382;2023-04-22T04:48:48;7.10;99.90
28520;DHT22;15732;48.534;20.382;2023-04-22T04:51:21;7.20;99.90
28520;DHT22;15732;48.534;20.382;2023-04-22T04:53:48;7.30;99.90
28520;DHT22;15732;48.534;20.382;2023-04-22T04:56:15;7.20;99.90
28520;DHT22;15732;48.534;20.382;2023-04-22T04:58:46;7.20;99.90
28520;DHT22;15732;48.534;20.382;2023-04-22T05:01:16;7.30;99.90
28520;DHT22;15732;48.534;20.382;2023-04-22T05:03:43;7.30;99.90
28520;DHT22;15732;48.534;20.382;2023-04-22T05:06:09;7.30;99.90
28520;DHT22;15732;48.534;20.382;2023-04-22T05:08:40;7.20;99.90
28520;DHT22;15732;48.534;20.382;2023-04-22T05:11:07;7.30;99.90
28520;DHT22;15732;48.534;20.382;2023-04-22T05:13:34;7.30;99.90
28520;DHT22;15732;48.534;20.382;2023-04-22T05:16:00;7.30;99.90
28520;DHT22;15732;48.534;20.382;2023-04-22T05:18:27;7.40;99.90
28520;DHT22;15732;48.534;20.382;2023-04-22T05:20:54;7.30;99.90
28520;DHT22;15732;48.534;20.382;2023-04-22T05:23:24;7.40;99.90
28520;DHT22;15732;48.534;20.382;2023-04-22T05:25:51;7.60;99.90
28520;DHT22;15732;48.534;20.382;2023-04-22T05:28:17;7.60;99.90
28520;DHT22;15732;48.534;20.382;2023-04-22T05:30:44;7.70;99.90
28520;DHT22;15732;48.534;20.382;2023-04-22T05:33:11;7.80;99.90
28520;DHT22;15732;48.534;20.382;2023-04-22T05:35:38;7.90;99.90
28520;DHT22;15732;48.534;20.382;2023-04-22T05:38:05;8.00;99.90
28520;DHT22;15732;48.534;20.382;2023-04-22T05:40:32;8.20;99.90
28520;DHT22;15732;48.534;20.382;2023-04-22T05:42:59;8.40;99.90
28520;DHT22;15732;48.534;20.382;2023-04-22T05:45:26;8.50;99.90
28520;DHT22;15732;48.534;20.382;2023-04-22T05:47:52;8.50;99.90
28520;DHT22;15732;48.534;20.382;2023-04-22T05:50:19;8.70;99.90
28520;DHT22;15732;48.534;20.382;2023-04-22T05:52:46;8.80;99.90
28520;DHT22;15732;48.534;20.382;2023-04-22T05:55:13;9.00;99.90
28520;DHT22;15732;48.534;20.382;2023-04-22T05:57:40;9.10;99.90
28520;DHT22;15732;48.534;20.382;2023-04-22T06:00:07;9.20;99.90
28520;DHT22;15732;48.534;20.382;2023-04-22T06:02:34;9.30;99.90
28520;DHT22;15732;48.534;20.382;2023-04-22T06:05:01;9.50;99.90
28520;DHT22;15732;48.534;20.382;2023-04-22T06:07:27;9.60;99.90
28520;DHT22;15732;48.534;20.382;2023-04-22T06:09:54;9.60;99.90
28520;DHT22;15732;48.534;20.382;2023-04-22T06:12:21;9.80;99.90
28520;DHT22;15732;48.534;20.382;2023-04-22T06:14:48;9.90;99.90
28520;DHT22;15732;48.534;20.382;2023-04-22T06:17:14;10.00;99.90
28520;DHT22;15732;48.534;20.382;2023-04-22T06:19:41;10.10;99.90
28520;DHT22;15732;48.534;20.382;2023-04-22T06:22:12;10.20;99.90
28520;DHT22;15732;48.534;20.382;2023-04-22T06:24:42;10.40;99.90
28520;DHT22;15732;48.534;20.382;2023-04-22T06:27:09;10.50;99.90
28520;DHT22;15732;48.534;20.382;2023-04-22T06:29:36;10.60;99.90
28520;DHT22;15732;48.534;20.382;2023-04-22T06:32:07;10.80;99.90
28520;DHT22;15732;48.534;20.382;2023-04-22T06:34:37;11.00;99.90
28520;DHT22;15732;48.534;20.382;2023-04-22T06:37:04;11.10;99.90
28520;DHT22;15732;48.534;20.382;2023-04-22T06:39:31;11.30;99.90
28520;DHT22;15732;48.534;20.382;2023-04-22T06:41:58;11.40;99.90
28520;DHT22;15732;48.534;20.382;2023-04-22T06:44:27;11.60;99.90
28520;DHT22;15732;48.534;20.382;2023-04-22T06:46:54;11.80;99.90
28520;DHT22;15732;48.534;20.382;2023-04-22T06:49:21;11.90;99.90
28520;DHT22;15732;48.534;20.382;2023-04-22T06:51:48;12.00;99.90
28520;DHT22;15732;48.534;20.382;2023-04-22T06:54:19;12.10;99.90
28520;DHT22;15732;48.534;20.382;2023-04-22T06:56:46;12.20;99.90
28520;DHT22;15732;48.534;20.382;2023-04-22T06:59:16;12.40;99.90
28520;DHT22;15732;48.534;20.382;2023-04-22T07:01:46;12.50;99.90
28520;DHT22;15732;48.534;20.382;2023-04-22T07:04:13;12.60;99.90
28520;DHT22;15732;48.534;20.382;2023-04-22T07:06:41;12.80;99.90
28520;DHT22;15732;48.534;20.382;2023-04-22T07:09:09;12.90;99.90
28520;DHT22;15732;48.534;20.382;2023-04-22T07:11:39;13.10;99.90
28520;DHT22;15732;48.534;20.382;2023-04-22T07:14:06;13.10;99.90
28520;DHT22;15732;48.534;20.382;2023-04-22T07:16:33;13.20;99.90
28520;DHT22;15732;48.534;20.382;2023-04-22T07:19:00;13.30;99.90
28520;DHT22;15732;48.534;20.382;2023-04-22T07:21:26;13.40;99.90
28520;DHT22;15732;48.534;20.382;2023-04-22T07:23:53;13.60;99.90
28520;DHT22;15732;48.534;20.382;2023-04-22T07:26:24;13.70;99.90
28520;DHT22;15732;48.534;20.382;2023-04-22T07:28:54;13.80;99.90
28520;DHT22;15732;48.534;20.382;2023-04-22T07:31:21;13.90;99.90
28520;DHT22;15732;48.534;20.382;2023-04-22T07:33:51;14.10;99.90
28520;DHT22;15732;48.534;20.382;2023-04-22T07:36:18;14.30;99.90
28520;DHT22;15732;48.534;20.382;2023-04-22T07:38:45;14.40;99.90
28520;DHT22;15732;48.534;20.382;2023-04-22T07:41:16;14.60;99.90
28520;DHT22;15732;48.534;20.382;2023-04-22T07:43:42;14.60;99.90
28520;DHT22;15732;48.534;20.382;2023-04-22T07:46:09;14.80;99.90
28520;DHT22;15732;48.534;20.382;2023-04-22T07:48:36;14.80;99.90
28520;DHT22;15732;48.534;20.382;2023-04-22T07:51:06;14.90;99.90
28520;DHT22;15732;48.534;20.382;2023-04-22T07:53:36;15.00;99.90
28520;DHT22;15732;48.534;20.382;2023-04-22T07:56:03;15.00;99.90
28520;DHT22;15732;48.534;20.382;2023-04-22T07:58:30;15.10;99.90
28520;DHT22;15732;48.534;20.382;2023-04-22T08:01:00;15.20;99.90
28520;DHT22;15732;48.534;20.382;2023-04-22T08:03:31;15.30;99.90
28520;DHT22;15732;48.534;20.382;2023-04-22T08:06:02;15.40;99.90
28520;DHT22;15732;48.534;20.382;2023-04-22T08:08:29;15.60;99.90
28520;DHT22;15732;48.534;20.382;2023-04-22T08:10:55;15.60;99.90
28520;DHT22;15732;48.534;20.382;2023-04-22T08:13:26;15.70;99.90
28520;DHT22;15732;48.534;20.382;2023-04-22T08:15:53;15.80;99.90
28520;DHT22;15732;48.534;20.382;2023-04-22T08:18:23;15.90;99.90
28520;DHT22;15732;48.534;20.382;2023-04-22T08:20:50;16.10;99.90
28520;DHT22;15732;48.534;20.382;2023-04-22T08:23:16;16.10;99.90
28520;DHT22;15732;48.534;20.382;2023-04-22T08:25:42;16.20;99.90
28520;DHT22;15732;48.534;20.382;2023-04-22T08:28:09;16.30;99.90
28520;DHT22;15732;48.534;20.382;2023-04-22T08:30:40;16.40;99.90
28520;DHT22;15732;48.534;20.382;2023-04-22T08:33:11;16.50;99.90
28520;DHT22;15732;48.534;20.382;2023-04-22T08:35:41;16.70;99.90
28520;DHT22;15732;48.534;20.382;2023-04-22T08:38:08;16.80;99.90
28520;DHT22;15732;48.534;20.382;2023-04-22T08:40:35;16.90;99.90
28520;DHT22;15732;48.534;20.382;2023-04-22T08:43:02;17.00;99.90
28520;DHT22;15732;48.534;20.382;2023-04-22T08:45:29;17.10;99.90
28520;DHT22;15732;48.534;20.382;2023-04-22T08:47:56;17.30;99.90
28520;DHT22;15732;48.534;20.382;2023-04-22T08:50:23;17.30;99.90
28520;DHT22;15732;48.534;20.382;2023-04-22T08:52:51;17.40;99.90
28520;DHT22;15732;48.534;20.382;2023-04-22T08:55:17;17.50;99.90
28520;DHT22;15732;48.534;20.382;2023-04-22T08:57:44;17.60;99.90
28520;DHT22;15732;48.534;20.382;2023-04-22T09:00:11;17.70;99.90
28520;DHT22;15732;48.534;20.382;2023-04-22T09:02:39;17.80;99.90
28520;DHT22;15732;48.534;20.382;2023-04-22T09:05:12;17.80;99.90
28520;DHT22;15732;48.534;20.382;2023-04-22T09:07:39;17.90;99.90
28520;DHT22;15732;48.534;20.382;2023-04-22T09:10:06;17.90;96.20
28520;DHT22;15732;48.534;20.382;2023-04-22T09:12:33;18.00;97.70
28520;DHT22;15732;48.534;20.382;2023-04-22T09:15:00;18.00;96.80
28520;DHT22;15732;48.534;20.382;2023-04-22T09:17:31;18.00;97.70
28520;DHT22;15732;48.534;20.382;2023-04-22T09:19:58;18.10;98.30
28520;DHT22;15732;48.534;20.382;2023-04-22T09:22:26;18.20;97.70
28520;DHT22;15732;48.534;20.382;2023-04-22T09:24:53;18.20;97.80
28520;DHT22;15732;48.534;20.382;2023-04-22T09:27:22;18.30;98.00
28520;DHT22;15732;48.534;20.382;2023-04-22T09:29:50;18.30;97.10
28520;DHT22;15732;48.534;20.382;2023-04-22T09:32:16;18.40;98.20
28520;DHT22;15732;48.534;20.382;2023-04-22T09:34:52;18.40;97.10
28520;DHT22;15732;48.534;20.382;2023-04-22T09:37:23;18.50;95.70
28520;DHT22;15732;48.534;20.382;2023-04-22T09:39:50;18.60;98.60
28520;DHT22;15732;48.534;20.382;2023-04-22T09:42:17;18.60;95.60
28520;DHT22;15732;48.534;20.382;2023-04-22T09:44:44;18.70;96.00
28520;DHT22;15732;48.534;20.382;2023-04-22T09:47:12;18.80;95.40
28520;DHT22;15732;48.534;20.382;2023-04-22T09:49:46;18.80;95.10
28520;DHT22;15732;48.534;20.382;2023-04-22T09:52:25;18.80;97.00
28520;DHT22;15732;48.534;20.382;2023-04-22T09:54:53;18.80;95.90
28520;DHT22;15732;48.534;20.382;2023-04-22T09:57:23;18.60;92.80
28520;DHT22;15732;48.534;20.382;2023-04-22T09:59:50;18.60;94.80
28520;DHT22;15732;48.534;20.382;2023-04-22T10:02:18;18.50;95.70
28520;DHT22;15732;48.534;20.382;2023-04-22T10:04:53;18.50;96.00
28520;DHT22;15732;48.534;20.382;2023-04-22T10:07:21;18.50;94.30
28520;DHT22;15732;48.534;20.382;2023-04-22T10:09:48;18.50;94.50
28520;DHT22;15732;48.534;20.382;2023-04-22T10:12:15;18.50;95.10
28520;DHT22;15732;48.534;20.382;2023-04-22T10:14:42;18.50;93.30
28520;DHT22;15732;48.534;20.382;2023-04-22T10:17:09;18.50;92.60
28520;DHT22;15732;48.534;20.382;2023-04-22T10:19:37;18.50;94.10
28520;DHT22;15732;48.534;20.382;2023-04-22T10:22:05;18.40;94.50
28520;DHT22;15732;48.534;20.382;2023-04-22T10:24:35;18.40;93.60
28520;DHT22;15732;48.534;20.382;2023-04-22T10:27:05;18.30;93.40
28520;DHT22;15732;48.534;20.382;2023-04-22T10:29:37;18.30;94.80
28520;DHT22;15732;48.534;20.382;2023-04-22T10:34:36;18.30;95.70
28520;DHT22;15732;48.534;20.382;2023-04-22T10:37:07;18.30;93.00
28520;DHT22;15732;48.534;20.382;2023-04-22T10:39:34;18.20;92.90
28520;DHT22;15732;48.534;20.382;2023-04-22T10:44:28;18.20;93.20
28520;DHT22;15732;48.534;20.382;2023-04-22T10:46:56;18.20;94.10
28520;DHT22;15732;48.534;20.382;2023-04-22T10:49:24;18.20;93.90
28520;DHT22;15732;48.534;20.382;2023-04-22T10:51:56;18.20;92.40
28520;DHT22;15732;48.534;20.382;2023-04-22T10:57:03;18.20;92.70
28520;DHT22;15732;48.534;20.382;2023-04-22T10:59:40;18.20;94.50
28520;DHT22;15732;48.534;20.382;2023-04-22T11:02:07;18.20;96.50
28520;DHT22;15732;48.534;20.382;2023-04-22T11:04:34;18.10;94.40
28520;DHT22;15732;48.534;20.382;2023-04-22T11:09:44;18.10;94.30
28520;DHT22;15732;48.534;20.382;2023-04-22T11:15:07;18.20;93.90
28520;DHT22;15732;48.534;20.382;2023-04-22T11:17:37;18.30;93.70
28520;DHT22;15732;48.534;20.382;2023-04-22T11:20:08;18.30;92.10
28520;DHT22;15732;48.534;20.382;2023-04-22T11:22:35;18.40;91.70
28520;DHT22;15732;48.534;20.382;2023-04-22T11:25:02;18.40;92.10
28520;DHT22;15732;48.534;20.382;2023-04-22T11:27:30;18.50;92.20
28520;DHT22;15732;48.534;20.382;2023-04-22T11:30:03;18.50;90.60
28520;DHT22;15732;48.534;20.382;2023-04-22T11:32:30;18.60;91.40
28520;DHT22;15732;48.534;20.382;2023-04-22T11:35:04;18.60;91.00
28520;DHT22;15732;48.534;20.382;2023-04-22T11:37:51;18.70;92.20
28520;DHT22;15732;48.534;20.382;2023-04-22T11:40:25;18.70;85.40
28520;DHT22;15732;48.534;20.382;2023-04-22T11:42:51;18.70;90.10
28520;DHT22;15732;48.534;20.382;2023-04-22T11:45:19;18.70;90.50
28520;DHT22;15732;48.534;20.382;2023-04-22T11:47:50;18.70;91.70
28520;DHT22;15732;48.534;20.382;2023-04-22T11:50:17;18.70;89.60
28520;DHT22;15732;48.534;20.382;2023-04-22T11:52:53;18.70;90.80
28520;DHT22;15732;48.534;20.382;2023-04-22T11:55:27;18.70;90.50
28520;DHT22;15732;48.534;20.382;2023-04-22T11:58:13;18.80;91.10
28520;DHT22;15732;48.534;20.382;2023-04-22T12:00:44;18.80;91.10
28520;DHT22;15732;48.534;20.382;2023-04-22T12:03:15;18.80;89.70
28520;DHT22;15732;48.534;20.382;2023-04-22T12:05:46;18.90;90.90
28520;DHT22;15732;48.534;20.382;2023-04-22T12:08:15;18.90;86.10
28520;DHT22;15732;48.534;20.382;2023-04-22T12:10:46;19.00;84.00
28520;DHT22;15732;48.534;20.382;2023-04-22T12:13:19;19.10;90.70
28520;DHT22;15732;48.534;20.382;2023-04-22T12:15:46;19.10;92.70
28520;DHT22;15732;48.534;20.382;2023-04-22T12:18:13;19.10;90.40
28520;DHT22;15732;48.534;20.382;2023-04-22T12:20:43;19.10;92.10
28520;DHT22;15732;48.534;20.382;2023-04-22T12:23:10;19.10;90.50
28520;DHT22;15732;48.534;20.382;2023-04-22T12:25:37;19.20;90.00
28520;DHT22;15732;48.534;20.382;2023-04-22T12:28:04;19.20;91.90
28520;DHT22;15732;48.534;20.382;2023-04-22T12:30:30;19.30;90.60
28520;DHT22;15732;48.534;20.382;2023-04-22T12:32:58;19.30;86.50
28520;DHT22;15732;48.534;20.382;2023-04-22T12:35:28;19.20;89.00
28520;DHT22;15732;48.534;20.382;2023-04-22T12:37:55;19.20;90.30
28520;DHT22;15732;48.534;20.382;2023-04-22T12:40:26;19.20;89.10
28520;DHT22;15732;48.534;20.382;2023-04-22T12:42:56;19.20;90.30
28520;DHT22;15732;48.534;20.382;2023-04-22T12:45:27;19.20;89.40
28520;DHT22;15732;48.534;20.382;2023-04-22T12:47:58;19.10;89.20
28520;DHT22;15732;48.534;20.382;2023-04-22T12:50:24;19.10;87.30
28520;DHT22;15732;48.534;20.382;2023-04-22T12:52:51;19.00;90.10
28520;DHT22;15732;48.534;20.382;2023-04-22T12:55:18;19.00;91.80
28520;DHT22;15732;48.534;20.382;2023-04-22T12:57:46;19.00;86.50
28520;DHT22;15732;48.534;20.382;2023-04-22T13:00:13;18.90;87.60
28520;DHT22;15732;48.534;20.382;2023-04-22T13:02:40;18.90;88.00
28520;DHT22;15732;48.534;20.382;2023-04-22T13:05:07;18.90;88.70
28520;DHT22;15732;48.534;20.382;2023-04-22T13:07:39;18.90;82.30
28520;DHT22;15732;48.534;20.382;2023-04-22T13:10:07;18.90;83.60
28520;DHT22;15732;48.534;20.382;2023-04-22T13:12:35;18.90;88.00
28520;DHT22;15732;48.534;20.382;2023-04-22T13:15:05;18.90;87.20
28520;DHT22;15732;48.534;20.382;2023-04-22T13:17:32;18.90;90.00
28520;DHT22;15732;48.534;20.382;2023-04-22T13:20:03;18.90;88.60
28520;DHT22;15732;48.534;20.382;2023-04-22T13:22:32;18.90;86.80
28520;DHT22;15732;48.534;20.382;2023-04-22T13:25:02;18.90;89.90
28520;DHT22;15732;48.534;20.382;2023-04-22T13:27:29;18.90;87.20
28520;DHT22;15732;48.534;20.382;2023-04-22T13:29:56;18.90;87.60
28520;DHT22;15732;48.534;20.382;2023-04-22T13:32:27;19.00;86.20
28520;DHT22;15732;48.534;20.382;2023-04-22T13:34:53;19.00;88.10
28520;DHT22;15732;48.534;20.382;2023-04-22T13:37:20;19.00;87.50
28520;DHT22;15732;48.534;20.382;2023-04-22T13:39:47;19.10;88.70
28520;DHT22;15732;48.534;20.382;2023-04-22T13:42:13;19.10;90.80
28520;DHT22;15732;48.534;20.382;2023-04-22T13:44:43;19.20;88.00
28520;DHT22;15732;48.534;20.382;2023-04-22T13:47:10;19.20;90.50
28520;DHT22;15732;48.534;20.382;2023-04-22T13:49:37;19.30;88.30
28520;DHT22;15732;48.534;20.382;2023-04-22T13:52:04;19.30;88.40
28520;DHT22;15732;48.534;20.382;2023-04-22T13:54:31;19.30;88.60
28520;DHT22;15732;48.534;20.382;2023-04-22T13:56:57;19.30;86.70
28520;DHT22;15732;48.534;20.382;2023-04-22T13:59:24;19.30;86.10
28520;DHT22;15732;48.534;20.382;2023-04-22T14:01:51;19.40;86.60
28520;DHT22;15732;48.534;20.382;2023-04-22T14:04:22;19.40;84.30
28520;DHT22;15732;48.534;20.382;2023-04-22T14:06:49;19.40;86.30
28520;DHT22;15732;48.534;20.382;2023-04-22T14:09:15;19.40;85.80
28520;DHT22;15732;48.534;20.382;2023-04-22T14:11:43;19.40;85.20
28520;DHT22;15732;48.534;20.382;2023-04-22T14:14:09;19.40;86.10
28520;DHT22;15732;48.534;20.382;2023-04-22T14:16:36;19.40;83.30
28520;DHT22;15732;48.534;20.382;2023-04-22T14:19:02;19.50;86.70
28520;DHT22;15732;48.534;20.382;2023-04-22T14:21:31;19.40;87.80
28520;DHT22;15732;48.534;20.382;2023-04-22T14:23:58;19.50;87.80
28520;DHT22;15732;48.534;20.382;2023-04-22T14:26:24;19.50;87.10
28520;DHT22;15732;48.534;20.382;2023-04-22T14:28:51;19.50;85.90
28520;DHT22;15732;48.534;20.382;2023-04-22T14:31:22;19.50;85.20
28520;DHT22;15732;48.534;20.382;2023-04-22T14:33:49;19.50;86.60
28520;DHT22;15732;48.534;20.382;2023-04-22T14:36:16;19.50;84.70
28520;DHT22;15732;48.534;20.382;2023-04-22T14:38:43;19.50;88.10
28520;DHT22;15732;48.534;20.382;2023-04-22T14:41:13;19.50;83.10
28520;DHT22;15732;48.534;20.382;2023-04-22T14:43:40;19.50;82.50
28520;DHT22;15732;48.534;20.382;2023-04-22T14:46:06;19.50;84.90
28520;DHT22;15732;48.534;20.382;2023-04-22T14:48:33;19.50;83.60
28520;DHT22;15732;48.534;20.382;2023-04-22T14:51:00;19.50;83.10
28520;DHT22;15732;48.534;20.382;2023-04-22T14:53:31;19.50;84.70
28520;DHT22;15732;48.534;20.382;2023-04-22T14:55:57;19.50;84.10
28520;DHT22;15732;48.534;20.382;2023-04-22T14:58:24;19.50;85.50
28520;DHT22;15732;48.534;20.382;2023-04-22T15:00:52;19.50;90.30
28520;DHT22;15732;48.534;20.382;2023-04-22T15:03:18;19.50;81.80
28520;DHT22;15732;48.534;20.382;2023-04-22T15:05:46;19.50;82.80
28520;DHT22;15732;48.534;20.382;2023-04-22T15:08:14;19.50;82.10
28520;DHT22;15732;48.534;20.382;2023-04-22T15:10:41;19.50;81.00
28520;DHT22;15732;48.534;20.382;2023-04-22T15:13:08;19.50;81.20
28520;DHT22;15732;48.534;20.382;2023-04-22T15:15:34;19.50;83.70
28520;DHT22;15732;48.534;20.382;2023-04-22T15:18:05;19.50;83.90
28520;DHT22;15732;48.534;20.382;2023-04-22T15:20:35;19.50;82.10
28520;DHT22;15732;48.534;20.382;2023-04-22T15:23:02;19.50;83.20
28520;DHT22;15732;48.534;20.382;2023-04-22T15:25:29;19.40;82.50
28520;DHT22;15732;48.534;20.382;2023-04-22T15:27:55;19.40;82.00
28520;DHT22;15732;48.534;20.382;2023-04-22T15:30:22;19.40;82.70
28520;DHT22;15732;48.534;20.382;2023-04-22T15:32:49;19.40;80.30
28520;DHT22;15732;48.534;20.382;2023-04-22T15:35:16;19.40;82.70
28520;DHT22;15732;48.534;20.382;2023-04-22T15:37:47;19.40;80.30